createdAt,value
2023-04-05T00:00:04.889Z,1.85
2023-04-05T00:01:04.933Z,1.81
2023-04-05T00:02:04.881Z,1.77
2023-04-05T00:03:04.933Z,1.76
2023-04-05T00:04:05.020Z,1.67
2023-04-05T00:05:04.835Z,1.62
2023-04-05T00:06:04.874Z,1.59
2023-04-05T00:07:04.812Z,1.59
2023-04-05T00:08:04.899Z,1.50
2023-04-05T00:09:04.850Z,1.56
2023-04-05T00:10:04.791Z,1.42
2023-04-05T00:11:04.782Z,1.42
2023-04-05T00:12:04.751Z,1.49
2023-04-05T00:13:04.756Z,1.41
2023-04-05T00:14:04.806Z,1.41
2023-04-05T00:15:04.737Z,1.37
2023-04-05T00:16:04.766Z,1.40
2023-04-05T00:17:04.713Z,1.40
2023-04-05T00:18:04.757Z,1.31
2023-04-05T00:19:04.695Z,1.28
2023-04-05T00:20:04.674Z,1.30
2023-04-05T00:21:04.682Z,1.38
2023-04-05T00:22:04.688Z,1.41
2023-04-05T00:23:04.956Z,1.32
2023-04-05T00:24:04.681Z,1.42
2023-04-05T00:25:04.628Z,1.44
2023-04-05T00:26:04.610Z,1.31
2023-04-05T00:27:04.603Z,1.17
2023-04-05T00:28:04.617Z,1.23
2023-04-05T00:29:04.707Z,1.24
2023-04-05T00:30:04.600Z,1.30
2023-04-05T00:31:04.613Z,1.19
2023-04-05T00:32:04.578Z,1.35
2023-04-05T00:33:04.597Z,1.31
2023-04-05T00:34:04.586Z,1.31
2023-04-05T00:35:04.541Z,1.34
2023-04-05T00:36:04.564Z,1.37
2023-04-05T00:37:04.507Z,1.42
2023-04-05T00:38:04.479Z,1.40
2023-04-05T00:39:04.523Z,1.52
2023-04-05T00:40:04.508Z,1.55
2023-04-05T00:41:04.457Z,1.58
2023-04-05T00:42:04.483Z,1.53
2023-04-05T00:43:04.445Z,1.58
2023-04-05T00:44:04.512Z,1.53
2023-04-05T00:45:04.431Z,1.55
2023-04-05T00:46:04.421Z,1.60
2023-04-05T00:47:04.412Z,1.56
2023-04-05T00:48:04.503Z,1.56
2023-04-05T00:49:04.490Z,1.58
2023-04-05T00:50:04.370Z,1.63
2023-04-05T00:51:04.383Z,1.60
2023-04-05T00:52:04.365Z,1.55
2023-04-05T00:53:04.346Z,1.56
2023-04-05T00:54:04.400Z,1.52
2023-04-05T00:55:04.424Z,1.50
2023-04-05T00:56:04.431Z,1.45
2023-04-05T00:57:04.315Z,1.42
2023-04-05T00:58:04.292Z,1.28
2023-04-05T00:59:04.410Z,1.40
2023-04-05T01:00:04.286Z,1.35
2023-04-05T01:01:04.327Z,1.38
2023-04-05T01:02:04.252Z,1.23
2023-04-05T01:03:04.262Z,1.22
2023-04-05T01:04:04.342Z,1.26
2023-04-05T01:05:04.225Z,1.24
2023-04-05T01:06:04.224Z,1.24
2023-04-05T01:07:04.205Z,1.19
2023-04-05T01:08:04.269Z,1.23
2023-04-05T01:09:04.185Z,1.20
2023-04-05T01:10:04.183Z,1.22
2023-04-05T01:11:04.171Z,1.26
2023-04-05T01:12:04.166Z,1.32
2023-04-05T01:13:04.135Z,1.31
2023-04-05T01:14:04.455Z,1.22
2023-04-05T01:15:04.116Z,1.22
2023-04-05T01:16:04.184Z,1.16
2023-04-05T01:17:04.100Z,1.13
2023-04-05T01:18:04.120Z,1.14
2023-04-05T01:19:04.136Z,1.05
2023-04-05T01:20:04.136Z,1.06
2023-04-05T01:21:04.069Z,1.04
2023-04-05T01:22:04.034Z,1.04
2023-04-05T01:23:04.058Z,1.12
2023-04-05T01:24:04.082Z,1.06
2023-04-05T01:25:04.090Z,1.06
2023-04-05T01:26:03.999Z,1.13
2023-04-05T01:27:03.989Z,1.13
2023-04-05T01:28:03.978Z,1.05
2023-04-05T01:29:04.000Z,1.13
2023-04-05T01:30:03.980Z,1.10
2023-04-05T01:31:04.013Z,1.13
2023-04-05T01:32:03.954Z,1.10
2023-04-05T01:33:03.977Z,1.08
2023-04-05T01:34:04.026Z,1.10
2023-04-05T01:35:03.935Z,1.08
2023-04-05T01:36:03.973Z,1.14
2023-04-05T01:37:03.883Z,1.13
2023-04-05T01:38:03.876Z,1.19
2023-04-05T01:39:03.862Z,1.16
2023-04-05T01:40:03.861Z,1.14
2023-04-05T01:41:03.931Z,1.16
2023-04-05T01:42:03.841Z,1.08
2023-04-05T01:43:03.839Z,1.16
2023-04-05T01:44:03.897Z,1.06
2023-04-05T01:45:03.814Z,1.04
2023-04-05T01:46:03.826Z,1.05
2023-04-05T01:47:03.818Z,1.04
2023-04-05T01:48:03.850Z,1.05
2023-04-05T01:49:03.838Z,1.01
2023-04-05T01:50:03.780Z,0.99
2023-04-05T01:51:03.766Z,1.06
2023-04-05T01:52:03.732Z,1.12
2023-04-05T01:53:03.758Z,1.05
2023-04-05T01:54:03.731Z,1.10
2023-04-05T01:55:03.767Z,1.14
2023-04-05T01:56:03.741Z,0.96
2023-04-05T01:57:03.702Z,0.95
2023-04-05T01:58:03.679Z,0.95
2023-04-05T01:59:03.753Z,0.96
2023-04-05T02:00:03.667Z,1.02
2023-04-05T02:01:03.747Z,0.95
2023-04-05T02:02:03.642Z,0.99
2023-04-05T02:03:03.724Z,0.98
2023-04-05T02:04:03.638Z,0.95
2023-04-05T02:05:03.630Z,0.94
2023-04-05T02:06:03.651Z,0.87
2023-04-05T02:07:03.697Z,0.88
2023-04-05T02:08:03.568Z,0.80
2023-04-05T02:09:03.563Z,0.65
2023-04-05T02:10:03.561Z,0.68
2023-04-05T02:11:03.584Z,0.60
2023-04-05T02:12:03.602Z,0.63
2023-04-05T02:13:03.538Z,0.49
2023-04-05T02:14:03.521Z,0.58
2023-04-05T02:15:03.508Z,0.52
2023-04-05T02:16:03.548Z,0.46
2023-04-05T02:17:03.576Z,0.52
2023-04-05T02:18:03.485Z,0.55
2023-04-05T02:19:03.489Z,0.60
2023-04-05T02:20:03.454Z,0.47
2023-04-05T02:21:03.460Z,0.55
2023-04-05T02:22:03.484Z,0.55
2023-04-05T02:23:03.472Z,0.50
2023-04-05T02:24:03.478Z,0.50
2023-04-05T02:25:03.419Z,0.50
2023-04-05T02:26:03.441Z,0.65
2023-04-05T02:27:03.426Z,0.55
2023-04-05T02:28:03.410Z,0.49
2023-04-05T02:29:03.388Z,0.60
2023-04-05T02:30:03.350Z,0.46
2023-04-05T02:31:03.393Z,0.56
2023-04-05T02:32:03.448Z,0.50
2023-04-05T02:33:03.342Z,0.59
2023-04-05T02:34:03.325Z,0.59
2023-04-05T02:35:03.308Z,0.56
2023-04-05T02:36:03.521Z,0.59
2023-04-05T02:37:03.282Z,0.50
2023-04-05T02:38:03.382Z,0.56
2023-04-05T02:39:03.352Z,0.44
2023-04-05T02:40:03.715Z,0.47
2023-04-05T02:41:03.241Z,0.56
2023-04-05T02:42:03.239Z,0.56
2023-04-05T02:43:03.217Z,0.52
2023-04-05T02:44:03.199Z,0.43
2023-04-05T02:45:03.268Z,0.55
2023-04-05T02:46:03.268Z,0.55
2023-04-05T02:47:03.189Z,0.46
2023-04-05T02:48:03.206Z,0.49
2023-04-05T02:49:03.179Z,0.39
2023-04-05T02:50:03.206Z,0.40
2023-04-05T02:51:03.127Z,0.44
2023-04-05T02:52:03.152Z,0.43
2023-04-05T02:53:03.124Z,0.46
2023-04-05T02:54:03.200Z,0.43
2023-04-05T02:55:03.114Z,0.39
2023-04-05T02:56:03.108Z,0.39
2023-04-05T02:57:03.066Z,0.34
2023-04-05T02:58:03.077Z,0.41
2023-04-05T02:59:03.084Z,0.37
2023-04-05T03:00:03.106Z,0.55
2023-04-05T03:01:03.053Z,0.46
2023-04-05T03:02:03.013Z,0.41
2023-04-05T03:03:03.099Z,0.44
2023-04-05T03:04:03.101Z,0.47
2023-04-05T03:05:03.060Z,0.40
2023-04-05T03:06:02.991Z,0.40
2023-04-05T03:07:02.956Z,0.39
2023-04-05T03:08:02.965Z,0.44
2023-04-05T03:09:02.952Z,0.34
2023-04-05T03:10:03.078Z,0.39
2023-04-05T03:11:02.950Z,0.39
2023-04-05T03:12:02.915Z,0.41
2023-04-05T03:13:02.918Z,0.37
2023-04-05T03:14:02.913Z,0.34
2023-04-05T03:15:02.940Z,0.32
2023-04-05T03:16:02.880Z,0.36
2023-04-05T03:17:02.961Z,0.28
2023-04-05T03:18:02.871Z,0.29
2023-04-05T03:19:02.851Z,0.31
2023-04-05T03:20:02.897Z,0.41
2023-04-05T03:21:02.911Z,0.32
2023-04-05T03:22:02.811Z,0.37
2023-04-05T03:23:02.824Z,0.36
2023-04-05T03:24:02.810Z,0.36
2023-04-05T03:25:02.836Z,0.40
2023-04-05T03:26:02.783Z,0.32
2023-04-05T03:27:02.780Z,0.28
2023-04-05T03:28:02.837Z,0.40
2023-04-05T03:29:02.767Z,0.29
2023-04-05T03:30:02.741Z,0.37
2023-04-05T03:31:02.728Z,0.28
2023-04-05T03:32:02.728Z,0.39
2023-04-05T03:33:02.759Z,0.40
2023-04-05T03:34:02.889Z,0.40
2023-04-05T03:35:02.699Z,0.26
2023-04-05T03:36:02.745Z,0.26
2023-04-05T03:37:02.659Z,0.28
2023-04-05T03:38:02.636Z,0.28
2023-04-05T03:39:02.713Z,0.25
2023-04-05T03:40:02.626Z,0.28
2023-04-05T03:41:02.641Z,0.28
2023-04-05T03:42:02.628Z,0.28
2023-04-05T03:43:02.610Z,0.25
2023-04-05T03:44:02.662Z,0.16
2023-04-05T03:45:02.579Z,0.19
2023-04-05T03:46:02.600Z,0.16
2023-04-05T03:47:02.575Z,0.16
2023-04-05T03:48:02.567Z,0.16
2023-04-05T03:49:02.606Z,0.19
2023-04-05T03:50:02.558Z,0.21
2023-04-05T03:51:02.566Z,0.25
2023-04-05T03:52:02.502Z,0.23
2023-04-05T03:53:02.510Z,0.19
2023-04-05T03:54:02.555Z,0.21
2023-04-05T03:55:02.488Z,0.16
2023-04-05T03:56:02.513Z,0.19
2023-04-05T03:57:02.481Z,0.22
2023-04-05T03:58:02.493Z,0.26
2023-04-05T03:59:02.497Z,0.19
2023-04-05T04:00:02.435Z,0.21
2023-04-05T04:01:02.471Z,0.16
2023-04-05T04:02:02.427Z,0.15
2023-04-05T04:03:02.426Z,0.11
2023-04-05T04:04:02.389Z,0.23
2023-04-05T04:05:02.412Z,0.19
2023-04-05T04:06:02.502Z,0.11
2023-04-05T04:07:02.360Z,0.12
2023-04-05T04:08:02.354Z,0.15
2023-04-05T04:09:02.397Z,0.07
2023-04-05T04:10:02.345Z,0.12
2023-04-05T04:11:02.345Z,0.11
2023-04-05T04:12:02.300Z,0.07
2023-04-05T04:13:02.295Z,0.11
2023-04-05T04:14:02.357Z,0.11
2023-04-05T04:15:02.303Z,0.08
2023-04-05T04:16:02.301Z,0.11
2023-04-05T04:17:02.263Z,0.15
2023-04-05T04:18:02.273Z,0.11
2023-04-05T04:19:02.258Z,0.15
2023-04-05T04:20:02.287Z,0.10
2023-04-05T04:21:02.291Z,0.07
2023-04-05T04:22:02.238Z,0.12
2023-04-05T04:23:02.259Z,0.08
2023-04-05T04:24:02.179Z,0.10
2023-04-05T04:25:02.174Z,0.07
2023-04-05T04:26:02.155Z,0.03
2023-04-05T04:27:02.175Z,0.05
2023-04-05T04:28:02.183Z,0.05
2023-04-05T04:29:02.122Z,-0.07
2023-04-05T04:30:02.115Z,0.05
2023-04-05T04:31:02.188Z,0.04
2023-04-05T04:32:02.114Z,0.08
2023-04-05T04:33:02.117Z,-0.03
2023-04-05T04:34:02.082Z,-0.03
2023-04-05T04:35:02.073Z,0.03
2023-04-05T04:36:02.135Z,-0.03
2023-04-05T04:37:02.072Z,-0.03
2023-04-05T04:38:02.096Z,-0.02
2023-04-05T04:39:02.036Z,-0.02
2023-04-05T04:40:02.011Z,0.00
2023-04-05T04:41:02.053Z,0.03
2023-04-05T04:42:01.997Z,-0.06
2023-04-05T04:43:01.988Z,-0.07
2023-04-05T04:44:01.971Z,-0.07
2023-04-05T04:45:02.011Z,-0.06
2023-04-05T04:46:02.058Z,-0.11
2023-04-05T04:47:01.945Z,-0.07
2023-04-05T04:48:01.971Z,-0.14
2023-04-05T04:49:01.929Z,-0.25
2023-04-05T04:50:01.940Z,-0.23
2023-04-05T04:51:01.972Z,-0.18
2023-04-05T04:52:01.892Z,-0.20
2023-04-05T04:53:01.973Z,-0.17
2023-04-05T04:54:01.881Z,-0.15
2023-04-05T04:55:01.863Z,-0.21
2023-04-05T04:56:01.909Z,-0.26
2023-04-05T04:57:01.842Z,-0.20
2023-04-05T04:58:01.832Z,-0.18
2023-04-05T04:59:01.918Z,-0.21
2023-04-05T05:00:01.810Z,-0.21
2023-04-05T05:01:01.822Z,-0.21
2023-04-05T05:02:01.796Z,-0.31
2023-04-05T05:03:01.833Z,-0.14
2023-04-05T05:04:01.904Z,-0.26
2023-04-05T05:05:01.761Z,-0.20
2023-04-05T05:06:01.747Z,-0.10
2023-04-05T05:07:01.747Z,-0.18
2023-04-05T05:08:01.790Z,-0.15
2023-04-05T05:09:01.774Z,-0.13
2023-04-05T05:10:01.731Z,-0.10
2023-04-05T05:11:01.775Z,-0.03
2023-04-05T05:12:01.703Z,-0.03
2023-04-05T05:13:01.681Z,-0.11
2023-04-05T05:14:01.725Z,0.00
2023-04-05T05:15:01.664Z,0.04
2023-04-05T05:16:01.647Z,0.05
2023-04-05T05:17:01.676Z,0.04
2023-04-05T05:18:01.667Z,0.12
2023-04-05T05:19:01.813Z,0.11
2023-04-05T05:20:01.632Z,0.18
2023-04-05T05:21:01.591Z,0.23
2023-04-05T05:22:01.607Z,0.21
2023-04-05T05:23:01.584Z,0.32
2023-04-05T05:24:01.618Z,0.32
2023-04-05T05:25:01.625Z,0.28
2023-04-05T05:26:01.558Z,0.39
2023-04-05T05:27:01.548Z,0.37
2023-04-05T05:28:01.533Z,0.46
2023-04-05T05:29:01.526Z,0.36
2023-04-05T05:30:01.572Z,0.46
2023-04-05T05:31:01.531Z,0.43
2023-04-05T05:32:01.493Z,0.49
2023-04-05T05:33:01.863Z,0.46
2023-04-05T05:34:01.500Z,0.62
2023-04-05T05:35:01.474Z,0.60
2023-04-05T05:36:01.521Z,0.66
2023-04-05T05:37:01.459Z,0.63
2023-04-05T05:38:01.530Z,0.69
2023-04-05T05:39:01.430Z,0.70
2023-04-05T05:40:01.421Z,0.66
2023-04-05T05:41:01.392Z,0.73
2023-04-05T05:42:01.395Z,0.86
2023-04-05T05:43:01.438Z,0.88
2023-04-05T05:44:01.349Z,0.87
2023-04-05T05:45:01.336Z,0.92
2023-04-05T05:46:01.411Z,0.88
2023-04-05T05:47:01.341Z,0.98
2023-04-05T05:48:01.431Z,0.88
2023-04-05T05:49:01.312Z,1.04
2023-04-05T05:50:01.292Z,1.02
2023-04-05T05:51:01.297Z,1.04
2023-04-05T05:52:01.396Z,1.08
2023-04-05T05:53:01.782Z,1.12
2023-04-05T05:54:01.295Z,1.02
2023-04-05T05:55:01.302Z,1.08
2023-04-05T05:56:01.244Z,1.17
2023-04-05T05:57:01.527Z,1.19
2023-04-05T05:58:04.175Z,1.22
2023-04-05T05:59:01.241Z,1.20
2023-04-05T06:00:01.291Z,1.20
2023-04-05T06:01:01.220Z,1.26
2023-04-05T06:02:01.193Z,1.23
2023-04-05T06:03:01.504Z,1.26
2023-04-05T06:04:01.240Z,1.23
2023-04-05T06:05:01.183Z,1.20
2023-04-05T06:06:01.127Z,1.22
2023-04-05T06:07:01.156Z,1.30
2023-04-05T06:08:01.113Z,1.34
2023-04-05T06:09:01.200Z,1.19
2023-04-05T06:10:01.113Z,1.08
2023-04-05T06:11:01.072Z,1.22
2023-04-05T06:12:01.113Z,1.13
2023-04-05T06:13:01.083Z,1.19
2023-04-05T06:14:01.143Z,1.10
2023-04-05T06:15:01.143Z,1.19
2023-04-05T06:16:01.070Z,1.01
2023-04-05T06:17:01.084Z,1.20
2023-04-05T06:18:01.102Z,1.37
2023-04-05T06:19:01.010Z,1.31
2023-04-05T06:20:01.020Z,1.17
2023-04-05T06:21:00.983Z,1.32
2023-04-05T06:22:01.056Z,1.34
2023-04-05T06:23:00.978Z,1.38
2023-04-05T06:24:00.963Z,1.32
2023-04-05T06:25:00.947Z,1.32
2023-04-05T06:26:00.924Z,1.26
2023-04-05T06:27:00.968Z,1.32
2023-04-05T06:28:00.911Z,1.35
2023-04-05T06:29:00.904Z,1.31
2023-04-05T06:30:00.900Z,1.41
2023-04-05T06:31:00.868Z,1.45
2023-04-05T06:32:00.969Z,1.45
2023-04-05T06:33:00.955Z,1.40
2023-04-05T06:34:00.901Z,1.49
2023-04-05T06:35:00.839Z,1.45
2023-04-05T06:36:00.915Z,1.50
2023-04-05T06:37:00.917Z,1.58
2023-04-05T06:38:00.803Z,1.59
2023-04-05T06:39:01.058Z,1.58
2023-04-05T06:40:01.008Z,1.63
2023-04-05T06:41:00.775Z,1.70
2023-04-05T06:42:01.695Z,1.76
2023-04-05T06:43:00.772Z,1.76
2023-04-05T06:44:00.774Z,1.73
2023-04-05T06:45:00.793Z,1.76
2023-04-05T06:46:00.773Z,1.95
2023-04-05T06:47:00.773Z,1.87
2023-04-05T06:48:00.801Z,1.94
2023-04-05T06:49:03.147Z,1.99
2023-04-05T06:50:00.724Z,2.08
2023-04-05T06:51:00.658Z,2.08
2023-04-05T06:52:00.939Z,2.11
2023-04-05T06:53:00.708Z,2.14
2023-04-05T06:54:00.642Z,2.10
2023-04-05T06:55:00.659Z,2.20
2023-04-05T06:56:00.629Z,2.15
2023-04-05T06:57:01.967Z,2.17
2023-04-05T06:58:00.687Z,2.17
2023-04-05T06:59:00.659Z,2.26
2023-04-05T07:00:00.585Z,2.26
2023-04-05T07:01:00.617Z,2.32
2023-04-05T07:02:00.560Z,2.28
2023-04-05T07:03:00.740Z,2.38
2023-04-05T07:04:00.799Z,2.46
2023-04-05T07:05:00.582Z,2.50
2023-04-05T07:06:00.518Z,2.64
2023-04-05T07:07:00.500Z,2.64
2023-04-05T07:08:00.655Z,2.72
2023-04-05T07:09:00.522Z,2.77
2023-04-05T07:10:00.550Z,2.82
2023-04-05T07:11:00.477Z,2.82
2023-04-05T07:12:00.460Z,2.90
2023-04-05T07:13:00.547Z,2.90
2023-04-05T07:14:00.536Z,2.87
2023-04-05T07:15:00.547Z,2.95
2023-04-05T07:16:00.460Z,3.04
2023-04-05T07:17:00.417Z,3.10
2023-04-05T07:18:00.614Z,3.11
2023-04-05T07:19:00.450Z,3.07
2023-04-05T07:20:00.372Z,3.07
2023-04-05T07:21:00.427Z,3.07
2023-04-05T07:22:00.345Z,3.18
2023-04-05T07:23:00.338Z,3.14
2023-04-05T07:24:00.427Z,3.16
2023-04-05T07:25:00.375Z,3.21
2023-04-05T07:26:00.347Z,3.21
2023-04-05T07:27:00.434Z,3.18
2023-04-05T07:28:00.310Z,3.23
2023-04-05T07:29:00.338Z,3.22
2023-04-05T07:30:00.345Z,3.31
2023-04-05T07:31:00.259Z,3.44
2023-04-05T07:32:00.274Z,3.55
2023-04-05T07:33:00.258Z,3.59
2023-04-05T07:34:00.232Z,3.63
2023-04-05T07:35:00.290Z,3.63
2023-04-05T07:36:00.285Z,3.58
2023-04-05T07:37:00.218Z,3.55
2023-04-05T07:38:00.194Z,3.69
2023-04-05T07:39:00.360Z,3.74
2023-04-05T07:40:00.214Z,3.69
2023-04-05T07:41:00.183Z,3.73
2023-04-05T07:42:00.142Z,3.80
2023-04-05T07:43:00.142Z,3.74
2023-04-05T07:44:00.174Z,3.88
2023-04-05T07:45:00.168Z,3.78
2023-04-05T07:46:00.210Z,3.92
2023-04-05T07:47:00.120Z,4.01
2023-04-05T07:48:00.107Z,4.05
2023-04-05T07:49:00.088Z,4.10
2023-04-05T07:50:00.103Z,4.14
2023-04-05T07:51:00.132Z,4.28
2023-04-05T07:52:00.055Z,4.28
2023-04-05T07:53:00.118Z,4.37
2023-04-05T07:54:01.878Z,4.45
2023-04-05T07:55:00.010Z,4.42
2023-04-05T07:56:00.126Z,4.50
2023-04-05T07:56:59.989Z,4.60
2023-04-05T07:57:59.976Z,4.70
2023-04-05T07:59:00.032Z,4.68
2023-04-05T07:59:59.963Z,4.71
2023-04-05T08:01:00.026Z,4.80
2023-04-05T08:02:04.909Z,4.82
2023-04-05T08:03:02.410Z,4.80
2023-04-05T08:04:00.049Z,4.80
2023-04-05T08:04:59.996Z,4.80
2023-04-05T08:06:00.012Z,4.92
2023-04-05T08:06:59.959Z,4.99
2023-04-05T08:07:59.916Z,4.99
2023-04-05T08:08:59.858Z,5.11
2023-04-05T08:09:59.870Z,5.23
2023-04-05T08:10:59.859Z,5.21
2023-04-05T08:11:59.893Z,5.33
2023-04-05T08:12:59.892Z,5.30
2023-04-05T08:13:59.808Z,5.32
2023-04-05T08:14:59.872Z,5.35
2023-04-05T08:15:59.836Z,5.47
2023-04-05T08:16:59.876Z,5.43
2023-04-05T08:17:59.832Z,5.51
2023-04-05T08:18:59.781Z,5.56
2023-04-05T08:19:59.756Z,5.61
2023-04-05T08:20:59.732Z,5.62
2023-04-05T08:21:59.793Z,5.66
2023-04-05T08:22:59.705Z,5.61
2023-04-05T08:23:59.699Z,5.62
2023-04-05T08:24:59.755Z,5.71
2023-04-05T08:25:59.687Z,5.68
2023-04-05T08:26:59.780Z,5.80
2023-04-05T08:27:59.656Z,5.80
2023-04-05T08:28:59.788Z,5.86
2023-04-05T08:29:59.656Z,5.75
2023-04-05T08:30:59.665Z,5.84
2023-04-05T08:31:59.727Z,5.84
2023-04-05T08:32:59.666Z,5.82
2023-04-05T08:33:59.620Z,5.93
2023-04-05T08:34:59.618Z,5.91
2023-04-05T08:35:59.589Z,5.90
2023-04-05T08:36:59.663Z,6.04
2023-04-05T08:37:59.553Z,6.07
2023-04-05T08:38:59.544Z,6.09
2023-04-05T08:39:59.552Z,6.08
2023-04-05T08:40:59.536Z,6.14
2023-04-05T08:41:59.618Z,6.16
2023-04-05T08:42:59.511Z,6.09
2023-04-05T08:43:59.497Z,6.14
2023-04-05T08:44:59.478Z,6.17
2023-04-05T08:45:59.477Z,6.20
2023-04-05T08:46:59.556Z,6.31
2023-04-05T08:47:59.535Z,6.36
2023-04-05T08:48:59.478Z,6.38
2023-04-05T08:49:59.437Z,6.33
2023-04-05T08:50:59.417Z,6.46
2023-04-05T08:51:59.431Z,6.36
2023-04-05T08:52:59.466Z,6.30
2023-04-05T08:53:59.410Z,6.38
2023-04-05T08:54:59.432Z,6.56
2023-04-05T08:55:59.386Z,6.62
2023-04-05T08:56:59.404Z,6.67
2023-04-05T08:57:59.449Z,6.60
2023-04-05T08:58:59.402Z,6.63
2023-04-05T08:59:59.339Z,6.56
2023-04-05T09:00:59.385Z,6.59
2023-04-05T09:02:01.019Z,6.49
2023-04-05T09:02:59.448Z,6.46
2023-04-05T09:03:59.313Z,6.52
2023-04-05T09:04:59.286Z,6.51
2023-04-05T09:05:59.278Z,6.48
2023-04-05T09:06:59.328Z,6.51
2023-04-05T09:07:59.313Z,6.52
2023-04-05T09:08:59.244Z,6.56
2023-04-05T09:09:59.226Z,6.51
2023-04-05T09:10:59.244Z,6.49
2023-04-05T09:11:59.218Z,6.42
2023-04-05T09:12:59.251Z,6.45
2023-04-05T09:13:59.267Z,6.51
2023-04-05T09:14:59.194Z,6.52
2023-04-05T09:15:59.177Z,6.56
2023-04-05T09:16:59.213Z,6.66
2023-04-05T09:17:59.250Z,6.62
2023-04-05T09:18:59.224Z,6.67
2023-04-05T09:19:59.110Z,6.77
2023-04-05T09:20:59.123Z,6.81
2023-04-05T09:21:59.094Z,6.81
2023-04-05T09:22:59.131Z,6.82
2023-04-05T09:23:59.136Z,6.84
2023-04-05T09:24:59.109Z,6.82
2023-04-05T09:25:59.072Z,6.87
2023-04-05T09:26:59.053Z,6.85
2023-04-05T09:27:59.047Z,6.81
2023-04-05T09:28:59.090Z,6.87
2023-04-05T09:29:59.104Z,6.89
2023-04-05T09:30:59.039Z,6.96
2023-04-05T09:31:59.009Z,6.88
2023-04-05T09:32:59.012Z,7.00
2023-04-05T09:33:59.031Z,6.95
2023-04-05T09:34:59.068Z,7.00
2023-04-05T09:35:59.002Z,7.00
2023-04-05T09:36:58.955Z,6.88
2023-04-05T09:37:59.022Z,6.97
2023-04-05T09:38:59.011Z,7.02
2023-04-05T09:39:59.012Z,7.05
2023-04-05T09:40:59.025Z,7.10
2023-04-05T09:41:58.905Z,7.17
2023-04-05T09:42:58.893Z,7.24
2023-04-05T09:43:59.872Z,7.33
2023-04-05T09:44:58.926Z,7.33
2023-04-05T09:45:58.981Z,7.39
2023-04-05T09:46:58.867Z,7.38
2023-04-05T09:47:58.906Z,7.36
2023-04-05T09:49:01.621Z,7.42
2023-04-05T09:49:58.883Z,7.38
2023-04-05T09:51:03.726Z,7.47
2023-04-05T09:51:59.802Z,7.45
2023-04-05T09:52:58.796Z,7.54
2023-04-05T09:53:58.791Z,7.60
2023-04-05T09:54:58.826Z,7.57
2023-04-05T09:55:58.749Z,7.58
2023-04-05T09:56:58.889Z,7.70
2023-04-05T09:57:58.722Z,7.75
2023-04-05T09:58:58.760Z,7.70
2023-04-05T09:59:58.712Z,7.69
2023-04-05T10:01:13.466Z,7.70
2023-04-05T10:01:59.793Z,7.79
2023-04-05T10:02:58.755Z,7.70
2023-04-05T10:03:58.788Z,7.82
2023-04-05T10:04:58.656Z,7.80
2023-04-05T10:05:58.666Z,7.85
2023-04-05T10:06:58.759Z,7.83
2023-04-05T10:07:58.629Z,7.83
2023-04-05T10:08:58.652Z,7.79
2023-04-05T10:09:58.619Z,7.90
2023-04-05T10:10:58.672Z,8.03
2023-04-05T10:11:58.581Z,8.05
2023-04-05T10:12:58.583Z,8.16
2023-04-05T10:13:58.563Z,8.19
2023-04-05T10:14:58.547Z,8.18
2023-04-05T10:15:58.646Z,8.19
2023-04-05T10:16:58.560Z,8.18
2023-04-05T10:17:58.592Z,8.23
2023-04-05T10:18:58.514Z,8.30
2023-04-05T10:19:58.496Z,8.33
2023-04-05T10:20:58.565Z,8.31
2023-04-05T10:21:58.487Z,8.30
2023-04-05T10:22:58.484Z,8.41
2023-04-05T10:23:58.477Z,8.44
2023-04-05T10:24:58.493Z,8.44
2023-04-05T10:25:58.474Z,8.44
2023-04-05T10:26:58.416Z,8.53
2023-04-05T10:27:58.405Z,8.51
2023-04-05T10:28:58.553Z,8.52
2023-04-05T10:29:58.827Z,8.52
2023-04-05T10:30:58.532Z,8.45
2023-04-05T10:31:58.409Z,8.38
2023-04-05T10:32:58.671Z,8.28
2023-04-05T10:33:58.342Z,8.34
2023-04-05T10:34:58.326Z,8.31
2023-04-05T10:35:58.417Z,8.31
2023-04-05T10:36:58.325Z,8.34
2023-04-05T10:37:58.352Z,8.44
2023-04-05T10:39:00.124Z,8.48
2023-04-05T10:39:58.273Z,8.60
2023-04-05T10:40:58.303Z,8.60
2023-04-05T10:41:58.271Z,8.70
2023-04-05T10:42:58.323Z,8.64
2023-04-05T10:43:58.242Z,8.69
2023-04-05T10:44:58.232Z,8.78
2023-04-05T10:45:58.305Z,8.74
2023-04-05T10:46:58.266Z,8.74
2023-04-05T10:47:58.305Z,8.79
2023-04-05T10:48:58.188Z,8.79
2023-04-05T10:49:58.166Z,8.71
2023-04-05T10:50:58.218Z,8.67
2023-04-05T10:51:58.220Z,8.66
2023-04-05T10:52:58.169Z,8.56
2023-04-05T10:53:58.146Z,8.56
2023-04-05T10:54:58.231Z,8.60
2023-04-05T10:55:58.161Z,8.61
2023-04-05T10:56:58.152Z,8.60
2023-04-05T10:57:58.185Z,8.60
2023-04-05T10:58:58.219Z,8.69
2023-04-05T10:59:58.076Z,8.64
2023-04-05T11:00:58.162Z,8.64
2023-04-05T11:01:58.133Z,8.66
2023-04-05T11:02:58.050Z,8.82
2023-04-05T11:03:58.095Z,8.84
2023-04-05T11:04:58.134Z,8.84
2023-04-05T11:05:58.103Z,8.91
2023-04-05T11:06:57.984Z,8.85
2023-04-05T11:07:58.011Z,8.92
2023-04-05T11:08:58.057Z,9.00
2023-04-05T11:09:57.981Z,9.08
2023-04-05T11:10:58.032Z,9.06
2023-04-05T11:11:57.941Z,9.04
2023-04-05T11:12:57.963Z,8.92
2023-04-05T11:13:57.971Z,8.97
2023-04-05T11:14:57.917Z,8.95
2023-04-05T11:15:57.949Z,8.97
2023-04-05T11:16:57.929Z,8.95
2023-04-05T11:17:58.006Z,8.89
2023-04-05T11:18:57.870Z,8.94
2023-04-05T11:19:57.898Z,8.94
2023-04-05T11:20:57.845Z,8.82
2023-04-05T11:21:57.865Z,8.91
2023-04-05T11:22:57.854Z,8.91
2023-04-05T11:23:57.884Z,8.88
2023-04-05T11:24:58.018Z,8.79
2023-04-05T11:25:57.808Z,8.95
2023-04-05T11:26:57.803Z,8.95
2023-04-05T11:27:57.775Z,8.85
2023-04-05T11:28:57.978Z,8.92
2023-04-05T11:29:57.761Z,8.92
2023-04-05T11:30:57.870Z,9.03
2023-04-05T11:31:57.776Z,9.06
2023-04-05T11:32:57.764Z,9.03
2023-04-05T11:33:58.505Z,9.03
2023-04-05T11:34:57.732Z,9.02
2023-04-05T11:35:58.344Z,8.94
2023-04-05T11:36:57.688Z,9.00
2023-04-05T11:37:57.707Z,9.04
2023-04-05T11:38:57.742Z,9.02
2023-04-05T11:39:57.654Z,8.99
2023-04-05T11:40:57.700Z,9.06
2023-04-05T11:41:57.657Z,9.08
2023-04-05T11:42:57.701Z,9.21
2023-04-05T11:43:57.674Z,9.31
2023-04-05T11:44:57.600Z,9.31
2023-04-05T11:45:57.650Z,9.31
2023-04-05T11:46:57.597Z,9.28
2023-04-05T11:47:57.624Z,9.37
2023-04-05T11:48:57.582Z,9.37
2023-04-05T11:49:57.579Z,9.37
2023-04-05T11:50:57.603Z,9.31
2023-04-05T11:51:57.530Z,9.28
2023-04-05T11:52:57.521Z,9.22
2023-04-05T11:53:57.570Z,9.25
2023-04-05T11:54:57.585Z,9.29
2023-04-05T11:55:57.486Z,9.28
2023-04-05T11:56:57.462Z,9.19
2023-04-05T11:57:57.492Z,9.19
2023-04-05T11:58:57.501Z,9.18
2023-04-05T11:59:57.497Z,9.26
2023-04-05T12:00:57.487Z,9.26
2023-04-05T12:01:57.414Z,9.25
2023-04-05T12:02:57.525Z,9.34
2023-04-05T12:03:57.548Z,9.41
2023-04-05T12:04:57.749Z,9.54
2023-04-05T12:05:57.366Z,9.65
2023-04-05T12:06:57.354Z,9.64
2023-04-05T12:07:57.361Z,9.64
2023-04-05T12:08:57.380Z,9.69
2023-04-05T12:09:57.344Z,9.65
2023-04-05T12:10:57.388Z,9.65
2023-04-05T12:11:57.340Z,9.80
2023-04-05T12:12:57.322Z,9.80
2023-04-05T12:13:57.304Z,9.65
2023-04-05T12:14:57.326Z,9.80
2023-04-05T12:15:57.382Z,9.72
2023-04-05T12:16:57.317Z,9.74
2023-04-05T12:17:57.281Z,9.64
2023-04-05T12:18:57.247Z,9.68
2023-04-05T12:19:57.246Z,9.61
2023-04-05T12:20:57.237Z,9.56
2023-04-05T12:21:57.308Z,9.61
2023-04-05T12:22:57.213Z,9.59
2023-04-05T12:23:57.210Z,9.48
2023-04-05T12:24:57.167Z,9.46
2023-04-05T12:25:57.206Z,9.58
2023-04-05T12:26:59.214Z,9.58
2023-04-05T12:27:57.233Z,9.62
2023-04-05T12:28:57.133Z,9.69
2023-04-05T12:29:57.219Z,9.74
2023-04-05T12:30:57.138Z,9.72
2023-04-05T12:31:57.136Z,9.83
2023-04-05T12:32:57.231Z,9.92
2023-04-05T12:33:57.116Z,9.91
2023-04-05T12:34:57.143Z,9.92
2023-04-05T12:35:57.087Z,9.89
2023-04-05T12:36:57.048Z,9.91
2023-04-05T12:37:57.030Z,9.94
2023-04-05T12:38:57.020Z,9.94
2023-04-05T12:39:57.085Z,9.99
2023-04-05T12:40:57.076Z,9.95
2023-04-05T12:41:57.050Z,10.02
2023-04-05T12:42:56.990Z,10.05
2023-04-05T12:43:56.976Z,9.98
2023-04-05T12:44:57.172Z,10.07
2023-04-05T12:45:57.021Z,10.05
2023-04-05T12:46:57.403Z,10.02
2023-04-05T12:47:57.035Z,10.15
2023-04-05T12:48:57.651Z,10.05
2023-04-05T12:49:56.967Z,10.09
2023-04-05T12:50:56.908Z,10.15
2023-04-05T12:51:56.899Z,10.13
2023-04-05T12:52:56.925Z,10.15
2023-04-05T12:53:56.869Z,10.23
2023-04-05T12:54:56.929Z,10.33
2023-04-05T12:55:56.856Z,10.22
2023-04-05T12:56:56.850Z,10.31
2023-04-05T12:57:56.897Z,10.25
2023-04-05T12:58:56.896Z,10.33
2023-04-05T12:59:56.803Z,10.42
2023-04-05T13:00:56.835Z,10.44
2023-04-05T13:01:56.776Z,10.53
2023-04-05T13:02:56.952Z,10.51
2023-04-05T13:04:08.554Z,10.57
2023-04-05T13:04:57.769Z,10.63
2023-04-05T13:05:56.752Z,10.57
2023-04-05T13:06:56.742Z,10.64
2023-04-05T13:07:56.730Z,10.48
2023-04-05T13:08:56.766Z,10.42
2023-04-05T13:09:56.765Z,10.40
2023-04-05T13:10:58.056Z,10.41
2023-04-05T13:11:56.707Z,10.37
2023-04-05T13:12:56.679Z,10.46
2023-04-05T13:13:56.717Z,10.44
2023-04-05T13:14:56.638Z,10.42
2023-04-05T13:15:56.731Z,10.51